createdAt,value
2022-08-26T00:00:06.776Z,100069.56
2022-08-26T00:05:13.416Z,100073.09
2022-08-26T00:10:14.149Z,100063.47
2022-08-26T00:15:19.022Z,100058.00
2022-08-26T00:20:25.277Z,100064.34
2022-08-26T00:25:27.676Z,100052.25
2022-08-26T00:30:31.256Z,100052.81
2022-08-26T00:35:33.673Z,100044.97
2022-08-26T00:40:36.619Z,100044.81
2022-08-26T00:45:45.508Z,100048.16
2022-08-26T00:50:51.665Z,100040.78
2022-08-26T00:55:58.175Z,100037.50
2022-08-26T01:01:00.271Z,100033.22
2022-08-26T01:06:03.753Z,100034.34
2022-08-26T01:11:05.881Z,100025.31
2022-08-26T01:16:13.775Z,100032.84
2022-08-26T01:21:26.887Z,100034.72
2022-08-26T01:26:31.902Z,100034.78
2022-08-26T01:31:39.676Z,100025.78
2022-08-26T01:36:41.464Z,100023.41
2022-08-26T01:41:45.421Z,100035.00
2022-08-26T01:46:49.956Z,100030.63
2022-08-26T01:51:54.628Z,100026.34
2022-08-26T01:56:56.953Z,100027.53
2022-08-26T02:01:58.385Z,100030.19
2022-08-26T02:07:00.172Z,100035.84
2022-08-26T02:12:02.876Z,100034.03
2022-08-26T02:17:07.199Z,100028.09
2022-08-26T02:22:14.998Z,100034.97
2022-08-26T02:27:20.392Z,100032.78
2022-08-26T02:32:21.630Z,100037.53
2022-08-26T02:37:24.066Z,100026.03
2022-08-26T02:42:27.448Z,100025.59
2022-08-26T02:47:29.091Z,100026.34
2022-08-26T02:52:30.013Z,100026.84
2022-08-26T02:57:32.612Z,100013.59
2022-08-26T03:02:33.361Z,100020.28
2022-08-26T03:07:34.552Z,100022.69
2022-08-26T03:12:37.106Z,100023.47
2022-08-26T03:17:38.057Z,100019.16
2022-08-26T03:22:40.863Z,100016.22
2022-08-26T03:27:43.654Z,100015.38
2022-08-26T03:32:44.528Z,100012.03
2022-08-26T03:37:45.217Z,100012.88
2022-08-26T03:42:47.739Z,100009.91
2022-08-26T03:47:49.326Z,100005.06
2022-08-26T03:52:51.619Z,100002.41
2022-08-26T03:57:54.167Z,100006.97
2022-08-26T04:02:56.169Z,100006.38
2022-08-26T04:07:56.973Z,99997.63
2022-08-26T04:13:00.522Z,99999.94
2022-08-26T04:18:01.197Z,100002.84
2022-08-26T04:23:01.976Z,99993.13
2022-08-26T04:28:04.494Z,100007.16
2022-08-26T04:33:12.742Z,100011.44
2022-08-26T04:38:14.264Z,100008.41
2022-08-26T04:43:16.398Z,100007.88
2022-08-26T04:48:17.082Z,100001.78
2022-08-26T04:53:19.061Z,100003.97
2022-08-26T04:58:23.533Z,100006.19
2022-08-26T05:03:25.500Z,100009.84
2022-08-26T05:08:27.076Z,100007.09
2022-08-26T05:13:29.591Z,100000.13
2022-08-26T05:18:30.379Z,100005.91
2022-08-26T05:23:32.647Z,100008.50
2022-08-26T05:28:34.924Z,100009.44
2022-08-26T05:33:36.008Z,100012.94
2022-08-26T05:38:36.966Z,100006.41
2022-08-26T05:43:38.976Z,100003.41
2022-08-26T05:48:44.385Z,100007.28
2022-08-26T05:53:54.369Z,100012.31
2022-08-26T05:58:58.393Z,100012.50
2022-08-26T06:04:02.486Z,100010.25
2022-08-26T06:09:05.090Z,100016.03
2022-08-26T06:14:08.760Z,100012.38
2022-08-26T06:19:11.930Z,100024.28
2022-08-26T06:24:32.314Z,100015.53
2022-08-26T06:29:36.372Z,100028.53
2022-08-26T06:34:38.526Z,100021.16
2022-08-26T06:39:41.106Z,100024.94
2022-08-26T06:44:44.702Z,100022.72
2022-08-26T06:49:45.577Z,100014.19
2022-08-26T06:54:46.260Z,100015.84
2022-08-26T06:59:48.888Z,100021.44
2022-08-26T07:04:51.962Z,100007.00
2022-08-26T07:09:57.472Z,100003.38
2022-08-26T07:14:59.726Z,100000.84
2022-08-26T07:20:01.315Z,100006.06
2022-08-26T07:25:02.198Z,100010.78
2022-08-26T07:30:07.743Z,100003.44
2022-08-26T07:35:09.241Z,100004.22
2022-08-26T07:40:10.699Z,99996.41
2022-08-26T07:45:14.198Z,99994.28
2022-08-26T07:50:15.002Z,99990.94
2022-08-26T07:55:16.673Z,99988.97
2022-08-26T08:00:18.881Z,99985.00
2022-08-26T08:05:22.846Z,99982.16
2022-08-26T08:10:34.577Z,99987.38
2022-08-26T08:15:37.670Z,99980.25
2022-08-26T08:20:42.283Z,99972.44
2022-08-26T08:25:45.644Z,99956.88
2022-08-26T08:30:47.867Z,99972.25
2022-08-26T08:35:49.247Z,99964.47
2022-08-26T08:40:51.360Z,99944.25
2022-08-26T08:45:59.765Z,99938.78
2022-08-26T08:51:09.112Z,99926.38
2022-08-26T08:56:20.613Z,99927.25
2022-08-26T09:01:37.130Z,99927.66
2022-08-26T09:06:41.060Z,99935.22
2022-08-26T09:11:44.386Z,99923.88
2022-08-26T09:16:52.649Z,99913.06
2022-08-26T09:21:56.903Z,99915.75
2022-08-26T09:26:59.369Z,99908.34
2022-08-26T09:32:21.251Z,99906.28
2022-08-26T09:37:38.357Z,99905.22
2022-08-26T09:42:40.049Z,99904.72
2022-08-26T09:47:55.017Z,99923.91
2022-08-26T09:53:12.830Z,99905.28
2022-08-26T09:58:15.914Z,99908.38
2022-08-26T10:03:27.203Z,99907.34
2022-08-26T10:08:32.489Z,99889.66
2022-08-26T10:13:37.205Z,99884.47
2022-08-26T10:18:46.187Z,99890.84
2022-08-26T10:23:50.871Z,99902.53
2022-08-26T10:28:57.672Z,99886.97
2022-08-26T10:34:00.791Z,99880.91
2022-08-26T10:39:05.844Z,99866.34
2022-08-26T10:44:12.734Z,99854.22
2022-08-26T10:49:17.847Z,99853.16
2022-08-26T10:54:25.229Z,99866.00
2022-08-26T10:59:36.951Z,99861.81
2022-08-26T11:04:48.510Z,99849.91
2022-08-26T11:09:49.737Z,99841.41
2022-08-26T11:14:58.776Z,99843.13
2022-08-26T11:20:09.257Z,99841.13
2022-08-26T11:25:15.423Z,99843.69
2022-08-26T11:30:45.123Z,99833.88
2022-08-26T11:35:50.102Z,99813.91
2022-08-26T11:41:08.927Z,99796.81
2022-08-26T11:46:12.128Z,99788.34
2022-08-26T11:51:23.333Z,99768.81
2022-08-26T11:56:31.606Z,99753.59
2022-08-26T12:01:35.778Z,99739.44
2022-08-26T12:06:45.227Z,99738.31
2022-08-26T12:11:46.651Z,99732.25
2022-08-26T12:16:48.018Z,99735.41
2022-08-26T12:21:50.713Z,99724.81
2022-08-26T12:27:11.969Z,99719.22
2022-08-26T12:32:17.474Z,99720.84
2022-08-26T12:37:19.915Z,99734.00
2022-08-26T12:42:41.024Z,99719.41
2022-08-26T12:47:44.659Z,99718.56
2022-08-26T12:52:56.398Z,99715.94
2022-08-26T12:58:21.209Z,99724.91
2022-08-26T13:03:46.219Z,99707.88
2022-08-26T13:08:49.632Z,99698.13
2022-08-26T13:13:53.519Z,99701.06
2022-08-26T13:18:56.132Z,99694.19
2022-08-26T13:24:02.400Z,99686.00
2022-08-26T13:29:05.350Z,99686.16
2022-08-26T13:34:10.396Z,99690.66
2022-08-26T13:39:13.472Z,99696.78
2022-08-26T13:44:14.581Z,99699.09
2022-08-26T13:49:15.664Z,99701.78
2022-08-26T13:54:17.829Z,99699.22
2022-08-26T13:59:19.401Z,99687.13
2022-08-26T14:04:27.370Z,99687.38
2022-08-26T14:09:29.881Z,99693.63
2022-08-26T14:14:30.627Z,99709.19
2022-08-26T14:19:32.914Z,99694.00
2022-08-26T14:24:34.947Z,99669.78
2022-08-26T14:29:35.627Z,99673.66
2022-08-26T14:34:36.502Z,99677.44
2022-08-26T14:39:38.536Z,99672.50
2022-08-26T14:44:39.950Z,99663.00
2022-08-26T14:49:40.639Z,99660.56
2022-08-26T14:54:42.814Z,99656.75
2022-08-26T14:59:49.852Z,99646.97
2022-08-26T15:04:51.409Z,99641.25
2022-08-26T15:09:53.477Z,99642.81
2022-08-26T15:14:54.233Z,99650.50
2022-08-26T15:19:55.229Z,99673.81
2022-08-26T15:24:57.512Z,99672.09
2022-08-26T15:29:58.262Z,99664.28
2022-08-26T15:34:59.079Z,99652.56
2022-08-26T15:40:01.202Z,99652.16
2022-08-26T15:45:01.927Z,99647.44
2022-08-26T15:50:02.640Z,99666.97
2022-08-26T15:55:05.387Z,99689.78
2022-08-26T16:00:07.692Z,99686.22
2022-08-26T16:05:13.554Z,99679.50
2022-08-26T16:10:15.585Z,99692.97
2022-08-26T16:15:16.803Z,99707.13
2022-08-26T16:20:17.692Z,99698.66
2022-08-26T16:25:20.187Z,99712.47
2022-08-26T16:30:21.889Z,99710.31
2022-08-26T16:35:23.244Z,99689.16
2022-08-26T16:40:25.840Z,99692.69
2022-08-26T16:45:27.583Z,99690.59
2022-08-26T16:50:28.372Z,99696.78
2022-08-26T16:55:30.553Z,99691.84
2022-08-26T17:00:34.608Z,99683.03
2022-08-26T17:05:36.336Z,99685.41
2022-08-26T17:10:38.565Z,99681.34
2022-08-26T17:15:39.558Z,99686.47
2022-08-26T17:20:40.252Z,99686.59
2022-08-26T17:25:42.543Z,99673.03
2022-08-26T17:30:44.379Z,99660.00
2022-08-26T17:35:45.085Z,99674.19
2022-08-26T17:40:47.223Z,99642.34
2022-08-26T17:45:48.248Z,99643.31
2022-08-26T17:50:49.480Z,99634.41
2022-08-26T17:55:52.624Z,99631.28
2022-08-26T18:00:54.662Z,99651.78
2022-08-26T18:05:55.416Z,99679.19
2022-08-26T18:10:57.507Z,99675.63
2022-08-26T18:15:58.318Z,99678.47
2022-08-26T18:21:01.844Z,99687.03
2022-08-26T18:26:04.136Z,99666.38
2022-08-26T18:31:07.741Z,99667.69
2022-08-26T18:36:09.061Z,99691.00
2022-08-26T18:41:11.230Z,99709.09
2022-08-26T18:46:12.434Z,99720.97
2022-08-26T18:51:17.274Z,99745.25
2022-08-26T18:56:19.903Z,99738.63
2022-08-26T19:01:25.450Z,99738.25
2022-08-26T19:06:32.810Z,99733.91
2022-08-26T19:11:37.508Z,99715.06
2022-08-26T19:16:45.996Z,99725.88
2022-08-26T19:21:47.756Z,99719.09
2022-08-26T19:26:55.203Z,99716.81
2022-08-26T19:31:59.016Z,99737.97
2022-08-26T19:36:59.752Z,99727.50
2022-08-26T19:42:01.842Z,99733.69
2022-08-26T19:47:03.562Z,99710.78
2022-08-26T19:52:05.642Z,99707.91
2022-08-26T19:57:08.017Z,99699.78
2022-08-26T20:02:11.098Z,99683.88
2022-08-26T20:07:15.351Z,99676.13
2022-08-26T20:12:20.474Z,99681.06
2022-08-26T20:17:21.212Z,99694.16
2022-08-26T20:22:22.236Z,99707.41
2022-08-26T20:27:37.873Z,99724.59
2022-08-26T20:32:39.954Z,99727.91
2022-08-26T20:37:41.709Z,99725.81
2022-08-26T20:42:43.741Z,99729.09
2022-08-26T20:47:44.617Z,99718.22
2022-08-26T20:52:46.337Z,99708.22
2022-08-26T20:57:49.458Z,99716.78
2022-08-26T21:02:50.488Z,99705.91
2022-08-26T21:07:51.467Z,99711.56
2022-08-26T21:12:53.494Z,99704.16
2022-08-26T21:17:54.283Z,99707.19
2022-08-26T21:22:54.970Z,99710.06
2022-08-26T21:27:57.297Z,99707.16
2022-08-26T21:32:58.004Z,99707.50
2022-08-26T21:37:58.897Z,99713.34
2022-08-26T21:43:00.888Z,99703.06
2022-08-26T21:48:01.629Z,99697.03
2022-08-26T21:53:02.336Z,99685.19
2022-08-26T21:58:04.370Z,99697.81
2022-08-26T22:03:05.122Z,99690.53
2022-08-26T22:08:05.923Z,99690.22
2022-08-26T22:13:08.525Z,99697.59
2022-08-26T22:18:09.722Z,99703.66
2022-08-26T22:23:11.135Z,99703.84
2022-08-26T22:28:13.279Z,99711.84
2022-08-26T22:33:14.473Z,99700.22
2022-08-26T22:38:15.490Z,99696.84
2022-08-26T22:43:18.300Z,99694.75
2022-08-26T22:48:21.633Z,99700.78
2022-08-26T22:53:22.784Z,99697.88
2022-08-26T22:58:30.866Z,99713.66
2022-08-26T23:03:31.947Z,99710.28
2022-08-26T23:08:32.669Z,99715.19
2022-08-26T23:13:34.663Z,99725.53
2022-08-26T23:18:35.789Z,99735.81
2022-08-26T23:23:36.488Z,99740.16
2022-08-26T23:28:39.621Z,99749.13
2022-08-26T23:33:57.864Z,99756.41
2022-08-26T23:38:59.054Z,99750.47
2022-08-26T23:44:03.540Z,99751.66
2022-08-26T23:49:05.459Z,99751.19
2022-08-26T23:54:07.176Z,99759.97
2022-08-26T23:59:10.284Z,99753.25
